Ameagle, WV

9:04 PM EDT on July 25, 2014 (GMT -0400)
Joes Creek (KWVCOMFO3) Elev 784 ft | 38.12 °N, 81.59 °W | Change Station

Current weather conditions updated 2 seconds ago

Clear
Clear
65.8 °F
Feels Like 65.8 °F
N
0.0
Wind Variable Wind from West
Gusts 0.0 mph

Tomorrow is forecast to be Much Warmer than today. Showers and thunderstorms late tomorrow night.

Today
High -- | Low -- °F
--% Chance of Precip.
Yesterday
High -- | Low -- °F
Precip. -- in
6:23 AM 8:41 PM
Waning Crescent, 1% visible
Pressure 30.02 in
Visibility 10.0 miles
Clouds Clear
Dew Point 64 °F
Humidity 92%
Rainfall 0.00 in
Snow Depth Not available.
UV 0 out of 12
Pollen 4.80 out of 12
Air Quality Not available.
Flu Activity Not available.
METAR KBKW 260051Z AUTO 17006KT 10SM CLR 18/12 A3009 RMK AO2 SLP166 T01830122 TSNO

More Conditions Fewer Conditions

Pressure 30.02 in
Visibility 10.0 miles
Clouds Clear
Dew Point 64 °F
Humidity 92%
Rainfall 0.00 in
Snow Depth Not available.
UV 0 out of 12
Pollen 4.80 out of 12
Air Quality Not available.
Flu Activity Not available.
METAR KBKW 260051Z AUTO 17006KT 10SM CLR 18/12 A3009 RMK AO2 SLP166 T01830122 TSNO

More Conditions Fewer Conditions

10-Day Weather Forecast

Almanac

Astronomy

Jul. 25, 2014 Rise Set
Actual Time 6:23 AM EDT 8:41 PM EDT
Civil Twilight 5:53 AM EDT 9:11 PM EDT
Nautical Twilight 5:16 AM EDT 9:47 PM EDT
Astronomical Twilight 4:36 AM EDT 10:27 PM EDT
Moon 5:20 AM EDT (7/25) 7:38 PM EDT (7/25)
Length of Visible Light 15h 17m
Length of Day
14h 18m
Tomorrow will be 1m 39s shorter.
Waning Crescent, 1% of the Moon is Illuminated
Today
Waning Crescent
Jul 26
New
Aug 3
First Quarter
Aug 10
Full
Aug 17
Last Quarter

Today's Extremes

State Highs State Lows

Community

WunderPhotos

Upload Photos

1,737,455 photos uploaded!

Nearby

Snow Depth

Station Depth Elevation
No new snow has been reported.

Earthquake Activity

City Distance Mag. Time & Date
No recent earthquake activity has been reported nearby.
Minimum magnitude displayed is 2.5.

Coastal Water Temperatures

Place Temperature
No Stations Reporting

Nearby Weather Stations

Station Location Temp. Dew Point Humidity Wind Precip. Elev Updated Type
Joes Creek, Comfort, WV 65.8 °F 64 °F 92% West  at  0.0 mph 0.00 in / hr 784 ft 9:04 PM EDT Rapid Fire
F.I.T. - Oyler Ave., Oak Hill, WV 66.3 °F 62 °F 86% NNW  at  0.0 mph 0.00 in / hr 1988 ft 9:04 PM EDT Rapid Fire
Glen Ferris, WV 69.7 °F 64 °F 81% WNW  at  0.0 mph 0.00 in / hr 676 ft 9:01 PM EDT Normal
., Gauley Bridge, WV 69.4 °F 60 °F 71% West  at  0.0 mph 0.00 in / hr 804 ft 8:59 PM EDT Normal
Southeast Beckley, Beckley, WV 65.5 °F 56 °F 72% SW  at  0.0 mph 0.00 in / hr 2365 ft 9:04 PM EDT Rapid Fire

Show More Stations Show Fewer Stations